Time;durP1;ratioP1;P1;durP2;ratioP2;P2;SDS_P1;SDS_P2;PMS_P1;PMS_P2;Temp;Humidity;BMP_temperature;BMP_pressure;BME280_temperature;BME280_humidity;BME280_pressure;Samples;Min_cycle;Max_cycle;Signal;HPM_P1;HPM_P2
2022/02/01 00:02:06;;;;;;;4.97;2.08;;;;;;;4.51;100.00;100594.69;4908518;29;20027;-71
2022/02/01 00:05:03;;;;;;;5.28;2.42;;;;;;;4.53;100.00;100598.63;4904693;29;20048;-71
2022/02/01 00:08:30;;;;;;;9.13;2.13;;;;;;;4.58;100.00;100597.69;4910064;29;20130;-70
2022/02/01 00:10:36;;;;;;;5.30;2.00;;;;;;;4.62;100.00;100590.63;4895191;29;20509;-70
2022/02/01 00:13:24;;;;;;;4.78;1.73;;;;;;;4.57;100.00;100588.13;4906019;29;20067;-71
2022/02/01 00:37:12;;;;;;;3.65;1.77;;;;;;;4.91;100.00;100579.28;4902160;29;20028;-72
2022/02/01 00:39:45;;;;;;;4.18;2.00;;;;;;;4.80;100.00;100578.06;4899774;29;20127;-71
2022/02/01 00:42:12;;;;;;;10.65;2.45;;;;;;;4.80;100.00;100578.81;4903254;29;20382;-73
2022/02/01 00:44:39;;;;;;;3.63;1.70;;;;;;;4.98;100.00;100585.69;4903278;29;20083;-71
2022/02/01 00:47:05;;;;;;;2.72;1.45;;;;;;;5.04;100.00;100583.63;4903653;29;20402;-71
2022/02/01 00:49:33;;;;;;;3.60;1.92;;;;;;;4.96;100.00;100584.41;4905555;29;20044;-70
2022/02/01 00:51:59;;;;;;;5.85;2.10;;;;;;;4.83;100.00;100591.53;4920624;29;20032;-70
2022/02/01 00:54:24;;;;;;;3.22;1.92;;;;;;;4.95;100.00;100585.53;4909555;29;20183;-71
2022/02/01 00:56:50;;;;;;;8.60;1.40;;;;;;;4.71;100.00;100591.38;4902658;29;20036;-69
2022/02/01 00:59:15;;;;;;;5.30;1.95;;;;;;;4.54;100.00;100586.09;4904044;29;20164;-70
2022/02/01 01:01:41;;;;;;;6.22;2.50;;;;;;;4.58;100.00;100597.69;4914099;29;20063;-70
2022/02/01 01:04:06;;;;;;;2.95;1.63;;;;;;;4.70;100.00;100589.84;4921607;29;20043;-72
2022/02/01 01:06:32;;;;;;;2.53;1.63;;;;;;;4.65;100.00;100587.31;4905142;29;20634;-70
2022/02/01 01:08:57;;;;;;;4.00;2.45;;;;;;;4.80;100.00;100594.06;4900306;29;20067;-71
2022/02/01 01:11:22;;;;;;;7.38;2.08;;;;;;;4.96;100.00;100597.75;4904136;29;20032;-72
2022/02/01 01:43:59;;;;;;;0.80;0.45;;;;;;;4.88;100.00;100586.00;4837423;29;20434;-70
2022/02/01 01:54:24;;;;;;;1.02;0.43;;;;;;;5.09;100.00;100567.44;4906987;29;20462;-70
2022/02/01 01:56:53;;;;;;;2.22;0.93;;;;;;;5.04;100.00;100568.41;4921061;29;20027;-71
2022/02/01 01:59:19;;;;;;;0.70;0.30;;;;;;;5.02;100.00;100564.47;4906641;29;20075;-69
2022/02/01 02:01:44;;;;;;;2.70;1.33;;;;;;;4.92;100.00;100564.81;4904036;29;20040;-71
2022/02/01 02:04:10;;;;;;;1.13;0.80;;;;;;;4.96;100.00;100555.06;4905372;29;20107;-70
2022/02/01 02:06:37;;;;;;;1.45;0.65;;;;;;;5.00;100.00;100556.78;4903390;29;20051;-69
2022/02/01 02:09:06;;;;;;;4.95;0.68;;;;;;;4.96;100.00;100557.75;4906752;29;20043;-69
2022/02/01 02:14:19;;;;;;;3.63;0.47;;;;;;;4.95;100.00;100559.66;4904817;29;20111;-71
2022/02/01 02:16:47;;;;;;;2.03;0.70;;;;;;;5.02;100.00;100543.91;4904825;29;20055;-70
2022/02/01 02:19:12;;;;;;;3.78;0.82;;;;;;;4.94;100.00;100542.06;4913009;29;20064;-71
2022/02/01 02:21:38;;;;;;;0.28;0.28;;;;;;;4.86;100.00;100528.78;4904027;29;20066;-69
2022/02/01 02:24:05;;;;;;;0.60;0.60;;;;;;;4.72;100.00;100528.97;4919646;29;20036;-70
2022/02/01 02:26:32;;;;;;;0.65;0.50;;;;;;;4.84;100.00;100521.06;4905167;29;20040;-70
2022/02/01 02:28:59;;;;;;;5.32;0.60;;;;;;;4.64;100.00;100535.09;4916831;29;20035;-70
2022/02/01 02:31:25;;;;;;;6.43;0.55;;;;;;;4.65;100.00;100531.31;4905662;29;20371;-70
2022/02/01 02:34:07;;;;;;;1.15;0.45;;;;;;;4.65;100.00;100531.31;4906982;29;20128;-70
2022/02/01 02:36:35;;;;;;;0.68;0.40;;;;;;;4.74;100.00;100529.44;4912786;29;20032;-69
2022/02/01 02:39:13;;;;;;;0.57;0.40;;;;;;;4.59;100.00;100525.38;4904810;29;20171;-69
2022/02/01 02:41:50;;;;;;;2.03;1.33;;;;;;;4.83;100.00;100534.72;4915852;29;20120;-69
2022/02/01 02:47:03;;;;;;;0.90;0.50;;;;;;;4.75;100.00;100555.00;4902119;29;20669;-72
2022/02/01 02:49:29;;;;;;;0.70;0.52;;;;;;;4.68;100.00;100548.56;4907787;29;20449;-69
2022/02/01 02:51:54;;;;;;;5.72;0.82;;;;;;;4.65;100.00;100549.19;4903135;29;20048;-70
2022/02/01 02:54:23;;;;;;;0.55;0.50;;;;;;;4.70;100.00;100547.16;4910643;29;20541;-71
2022/02/01 02:57:00;;;;;;;4.18;0.98;;;;;;;4.78;100.00;100554.34;4903649;29;20044;-70
2022/02/01 02:59:27;;;;;;;0.73;0.30;;;;;;;4.65;100.00;100543.88;4902431;29;20138;-70
2022/02/01 03:01:53;;;;;;;0.60;0.60;;;;;;;4.57;100.00;100534.78;4901553;29;20039;-72
2022/02/01 03:04:24;;;;;;;0.10;0.10;;;;;;;4.72;100.00;100549.50;4906335;29;20068;-70
2022/02/01 03:06:50;;;;;;;0.30;0.30;;;;;;;4.57;100.00;100546.25;4911445;29;20047;-70
2022/02/01 03:09:16;;;;;;;0.20;0.20;;;;;;;4.79;100.00;100552.47;4923275;29;20494;-70
2022/02/01 03:11:42;;;;;;;1.02;0.60;;;;;;;4.70;100.00;100549.84;4907927;29;20056;-69
2022/02/01 03:14:24;;;;;;;1.33;0.40;;;;;;;4.69;100.00;100550.91;4903865;29;20028;-70
2022/02/01 03:17:02;;;;;;;5.88;0.50;;;;;;;4.66;100.00;100545.44;4919424;29;20040;-69
2022/02/01 03:22:11;;;;;;;0.30;0.30;;;;;;;4.52;100.00;100540.31;4900837;29;20032;-69
2022/02/01 03:24:37;;;;;;;1.67;0.30;;;;;;;4.57;100.00;100542.78;4907471;29;20046;-70
2022/02/01 03:27:03;;;;;;;0.35;0.25;;;;;;;4.50;100.00;100531.84;4923994;29;20035;-69
2022/02/01 03:29:28;;;;;;;6.88;0.73;;;;;;;4.55;100.00;100534.31;4909244;29;20409;-69
2022/02/01 03:31:54;;;;;;;1.90;0.60;;;;;;;4.51;100.00;100536.84;4904248;29;20705;-69
2022/02/01 03:34:19;;;;;;;1.10;0.57;;;;;;;4.52;100.00;100534.97;4911822;29;20720;-70
2022/02/01 03:36:45;;;;;;;1.65;0.32;;;;;;;4.50;100.00;100532.63;4908249;29;20119;-69
2022/02/01 03:39:10;;;;;;;3.60;0.57;;;;;;;4.70;100.00;100525.03;4908338;29;20055;-70
2022/02/01 03:41:36;;;;;;;14.68;0.85;;;;;;;4.82;100.00;100522.50;4907596;29;20040;-69
2022/02/01 03:44:04;;;;;;;0.35;0.35;;;;;;;4.80;100.00;100520.13;4920977;29;20059;-70
2022/02/01 03:46:30;;;;;;;0.35;0.30;;;;;;;4.73;100.00;100521.72;4922977;29;20098;-70
2022/02/01 03:48:55;;;;;;;2.20;0.52;;;;;;;4.86;100.00;100524.19;4916688;29;20075;-70
2022/02/01 03:51:21;;;;;;;0.40;0.17;;;;;;;4.91;100.00;100516.03;4913032;29;20024;-69
2022/02/01 03:53:46;;;;;;;0.32;0.32;;;;;;;4.92;100.00;100516.78;4920607;29;20095;-70
2022/02/01 03:56:12;;;;;;;0.15;0.15;;;;;;;4.90;100.00;100519.00;4920935;29;20107;-70
2022/02/01 03:58:37;;;;;;;0.10;0.10;;;;;;;5.01;100.00;100522.91;4901940;29;20414;-69
2022/02/01 04:01:03;;;;;;;2.60;0.63;;;;;;;4.84;100.00;100529.06;4917243;29;20036;-70
2022/02/01 04:03:29;;;;;;;0.45;0.45;;;;;;;4.94;100.00;100511.91;4923073;29;20047;-69
2022/02/01 04:05:54;;;;;;;4.88;0.30;;;;;;;4.96;100.00;100510.50;4917239;29;20039;-70
2022/02/01 04:08:22;;;;;;;3.00;0.52;;;;;;;4.84;100.00;100512.31;4909083;29;20031;-69
2022/02/01 04:10:49;;;;;;;0.93;0.35;;;;;;;4.93;100.00;100518.38;4902777;29;20052;-70
2022/02/01 04:13:15;;;;;;;1.10;0.40;;;;;;;4.75;100.00;100506.97;4909417;29;21097;-70
2022/02/01 04:15:42;;;;;;;1.55;0.40;;;;;;;4.68;100.00;100509.38;4912714;29;20060;-70
2022/02/01 04:18:08;;;;;;;2.15;0.43;;;;;;;4.64;100.00;100503.09;4905709;29;20038;-70
2022/02/01 04:20:33;;;;;;;0.15;0.15;;;;;;;4.67;100.00;100510.47;4905399;29;20482;-73
2022/02/01 04:22:59;;;;;;;6.32;0.38;;;;;;;4.88;100.00;100508.66;4907051;29;20051;-70
2022/02/01 04:25:24;;;;;;;0.20;0.20;;;;;;;4.63;100.00;100495.44;4908305;29;20455;-70
2022/02/01 04:27:50;;;;;;;0.85;0.35;;;;;;;4.62;100.00;100494.63;4922404;29;20579;-70
2022/02/01 04:30:17;;;;;;;0.95;0.32;;;;;;;4.58;100.00;100501.72;4915930;29;20668;-73
2022/02/01 04:32:48;;;;;;;0.52;0.30;;;;;;;4.71;100.00;100497.25;4917381;29;20516;-71
2022/02/01 04:35:21;;;;;;;;;;;;;;;4.64;100.00;100500.44;4919320;29;20111;-70
2022/02/01 04:37:47;;;;;;;6.38;0.65;;;;;;;4.75;100.00;100508.84;4902832;29;19929;-72
2022/02/01 04:40:16;;;;;;;2.00;0.52;;;;;;;4.69;100.00;100504.78;4898971;29;20443;-70
2022/02/01 04:42:42;;;;;;;3.72;0.70;;;;;;;4.73;100.00;100500.41;4901320;29;20036;-71
2022/02/01 04:45:14;;;;;;;0.85;0.63;;;;;;;4.67;100.00;100493.66;4902642;29;20391;-71
2022/02/01 04:47:40;;;;;;;5.22;1.15;;;;;;;4.73;100.00;100497.72;4905279;29;20044;-71
2022/02/01 04:50:12;;;;;;;1.13;0.38;;;;;;;4.66;100.00;100498.25;4905472;29;20051;-70
2022/02/01 04:52:39;;;;;;;11.32;0.80;;;;;;;4.56;100.00;100486.03;4921850;29;20044;-70
2022/02/01 04:55:05;;;;;;;0.47;0.25;;;;;;;4.59;100.00;100492.59;4887878;29;20135;-70
2022/02/01 04:57:30;;;;;;;1.15;0.45;;;;;;;4.54;100.00;100500.78;4894011;29;20040;-70
2022/02/01 04:59:56;;;;;;;1.73;0.50;;;;;;;4.59;100.00;100495.25;4905794;29;20036;-70
2022/02/01 05:02:21;;;;;;;4.38;0.45;;;;;;;4.68;100.00;100500.59;4900245;29;20043;-70
2022/02/01 05:04:47;;;;;;;2.03;0.65;;;;;;;4.67;100.00;100504.34;4918420;29;20091;-70
2022/02/01 05:07:12;;;;;;;4.20;0.40;;;;;;;4.61;100.00;100501.06;4905642;29;20495;-70
2022/02/01 05:09:38;;;;;;;3.78;0.98;;;;;;;4.55;100.00;100500.47;4909505;29;20040;-71
2022/02/01 05:12:07;;;;;;;1.90;0.50;;;;;;;4.65;100.00;100495.88;4907611;29;20047;-71
2022/02/01 05:14:33;;;;;;;0.30;0.30;;;;;;;4.70;100.00;100514.38;4915703;29;20040;-72
2022/02/01 05:16:59;;;;;;;1.00;0.55;;;;;;;4.79;100.00;100520.47;4904615;29;20043;-71
2022/02/01 05:22:12;;;;;;;1.70;0.45;;;;;;;4.78;100.00;100525.00;4908258;29;20114;-71
2022/02/01 05:24:39;;;;;;;0.22;0.22;;;;;;;4.80;100.00;100520.13;4906908;29;20040;-72
2022/02/01 05:27:08;;;;;;;0.30;0.30;;;;;;;4.86;100.00;100529.53;4903135;29;20040;-71
2022/02/01 05:29:35;;;;;;;1.08;0.57;;;;;;;4.98;99.30;100528.84;4907375;29;20672;-71
2022/02/01 05:32:06;;;;;;;3.72;0.43;;;;;;;5.03;98.82;100518.03;4920755;29;20044;-68
2022/02/01 05:34:31;;;;;;;0.63;0.32;;;;;;;5.02;99.14;100522.56;4903500;29;20100;-68
2022/02/01 05:36:57;;;;;;;1.02;0.52;;;;;;;4.97;99.36;100509.41;4902964;29;20048;-70
2022/02/01 05:39:24;;;;;;;4.45;1.77;;;;;;;5.07;98.76;100509.03;4908757;29;20082;-71
2022/02/01 05:41:52;;;;;;;0.47;0.40;;;;;;;4.85;100.00;100506.63;4909832;29;20417;-70
2022/02/01 05:44:17;;;;;;;0.55;0.40;;;;;;;4.80;100.00;100498.78;4901216;29;20036;-69
2022/02/01 05:46:43;;;;;;;0.52;0.28;;;;;;;4.97;100.00;100509.41;4905976;29;20079;-71
2022/02/01 05:49:09;;;;;;;0.40;0.22;;;;;;;5.04;100.00;100493.69;4904346;29;20115;-71
2022/02/01 05:51:35;;;;;;;5.47;0.35;;;;;;;4.87;100.00;100499.09;4903837;29;20052;-72
2022/02/01 05:54:01;;;;;;;9.73;0.60;;;;;;;4.88;100.00;100489.97;4901085;29;20040;-71
2022/02/01 05:56:27;;;;;;;0.15;0.15;;;;;;;4.87;100.00;100488.44;4902792;29;20129;-72
2022/02/01 05:58:53;;;;;;;5.78;1.00;;;;;;;4.81;100.00;100478.25;4907749;29;20032;-69
2022/02/01 06:01:19;;;;;;;1.58;0.70;;;;;;;4.75;100.00;100480.31;4901386;29;20474;-71
2022/02/01 06:03:45;;;;;;;1.10;0.28;;;;;;;4.91;100.00;100469.91;4901517;29;20047;-70
2022/02/01 06:06:10;;;;;;;0.30;0.30;;;;;;;4.94;100.00;100461.25;4902773;29;20090;-71
2022/02/01 06:08:36;;;;;;;0.50;0.47;;;;;;;4.85;100.00;100455.97;4905389;29;20115;-70
2022/02/01 06:11:02;;;;;;;6.07;0.70;;;;;;;4.91;100.00;100448.56;4900136;29;20035;-69
2022/02/01 06:13:27;;;;;;;6.22;0.77;;;;;;;4.83;100.00;100454.72;4907932;28;20051;-71
2022/02/01 06:15:53;;;;;;;4.85;0.85;;;;;;;4.74;100.00;100454.75;4903096;29;20044;-69
2022/02/01 06:18:19;;;;;;;0.95;0.50;;;;;;;4.79;100.00;100449.25;4903119;29;20071;-68
2022/02/01 06:20:44;;;;;;;5.18;1.05;;;;;;;4.86;100.00;100435.41;4904353;29;20119;-71
2022/02/01 06:23:17;;;;;;;0.60;0.28;;;;;;;4.90;100.00;100449.63;4899547;29;20032;-70
2022/02/01 06:25:51;;;;;;;0.73;0.38;;;;;;;4.98;100.00;100446.16;4902605;29;20040;-68
2022/02/01 06:28:22;;;;;;;1.00;0.17;;;;;;;4.85;100.00;100455.97;4900587;29;20143;-71
2022/02/01 06:30:48;;;;;;;0.17;0.17;;;;;;;4.90;100.00;100445.09;4901791;29;20043;-71
2022/02/01 06:33:14;;;;;;;0.10;0.10;;;;;;;4.91;100.00;100451.22;4919921;29;20425;-70
2022/02/01 06:35:39;;;;;;;3.33;0.98;;;;;;;4.84;100.00;100453.63;4909796;29;20044;-70
2022/02/01 06:38:06;;;;;;;0.38;0.30;;;;;;;4.87;100.00;100453.75;4896605;29;20283;-70
2022/02/01 06:40:31;;;;;;;0.30;0.30;;;;;;;4.84;100.00;100461.63;4905083;29;20075;-69
2022/02/01 06:42:57;;;;;;;2.08;0.52;;;;;;;5.01;100.00;100464.19;4903481;29;20122;-71
2022/02/01 06:45:26;;;;;;;0.20;0.20;;;;;;;5.12;100.00;100455.50;4914709;29;20104;-69
2022/02/01 06:47:52;;;;;;;0.20;0.20;;;;;;;5.08;100.00;100451.91;4908751;29;20036;-71
2022/02/01 06:50:20;;;;;;;0.98;0.57;;;;;;;4.97;100.00;100445.41;4931856;29;20069;-71
2022/02/01 06:52:47;;;;;;;1.42;0.47;;;;;;;4.92;100.00;100440.22;4921490;29;20047;-70
2022/02/01 06:55:14;;;;;;;1.35;0.43;;;;;;;4.99;100.00;100435.19;4910823;29;20375;-69
2022/02/01 06:57:40;;;;;;;0.35;0.30;;;;;;;5.04;100.00;100440.31;4926420;29;20393;-71
2022/02/01 07:00:07;;;;;;;5.45;0.57;;;;;;;5.01;100.00;100435.66;4900002;29;20051;-71
2022/02/01 07:02:32;;;;;;;0.60;0.50;;;;;;;5.01;100.00;100432.97;4909466;29;20043;-71
2022/02/01 07:04:58;;;;;;;0.65;0.45;;;;;;;4.88;100.00;100428.63;4913270;29;20143;-72
2022/02/01 07:07:24;;;;;;;3.35;0.73;;;;;;;5.05;100.00;100417.84;4911710;29;20106;-72
2022/02/01 07:09:49;;;;;;;1.02;0.20;;;;;;;5.15;100.00;100401.47;4901670;29;20052;-71
2022/02/01 07:12:15;;;;;;;0.95;0.50;;;;;;;5.01;100.00;100392.94;4902460;29;20087;-71
2022/02/01 07:14:40;;;;;;;3.75;0.50;;;;;;;4.90;100.00;100386.41;4899368;29;20039;-68
2022/02/01 07:17:05;;;;;;;0.20;0.20;;;;;;;5.03;100.00;100379.28;4897382;29;20127;-71
2022/02/01 07:19:31;;;;;;;5.88;0.60;;;;;;;4.93;100.00;100375.09;4900789;29;20123;-70
2022/02/01 07:21:56;;;;;;;0.43;0.40;;;;;;;5.15;100.00;100377.47;4917093;29;20039;-71
2022/02/01 07:24:28;;;;;;;0.10;0.10;;;;;;;5.15;100.00;100376.69;4906881;29;20482;-71
2022/02/01 07:26:58;;;;;;;3.72;1.00;;;;;;;5.16;100.00;100387.03;4907437;29;20073;-72
2022/02/01 07:29:24;;;;;;;0.75;0.55;;;;;;;5.01;100.00;100387.63;4918630;29;20123;-71
2022/02/01 07:31:50;;;;;;;6.53;0.75;;;;;;;5.16;100.00;100395.03;4903125;29;20077;-70
2022/02/01 07:34:15;;;;;;;3.08;0.70;;;;;;;5.25;100.00;100379.75;4903871;29;20123;-68
2022/02/01 07:36:44;;;;;;;2.58;0.50;;;;;;;5.19;100.00;100380.25;4901337;29;20164;-71
2022/02/01 07:39:11;;;;;;;4.65;1.38;;;;;;;5.18;100.00;100371.50;4900885;29;20046;-71
2022/02/01 07:41:38;;;;;;;0.10;0.10;;;;;;;5.15;100.00;100353.44;4903989;29;20841;-71
2022/02/01 07:44:05;;;;;;;1.60;0.47;;;;;;;5.04;100.00;100343.47;4900904;29;20059;-70
2022/02/01 07:46:31;;;;;;;5.38;1.20;;;;;;;5.24;100.00;100332.81;4900996;29;20171;-70
2022/02/01 07:48:57;;;;;;;0.10;0.10;;;;;;;5.17;100.00;100337.09;4902374;29;20058;-70
2022/02/01 07:51:22;;;;;;;1.08;0.65;;;;;;;5.28;100.00;100343.63;4902299;29;20406;-71
2022/02/01 07:53:47;;;;;;;0.75;0.30;;;;;;;5.35;100.00;100328.63;4899513;29;20040;-71
2022/02/01 07:56:13;;;;;;;7.43;0.52;;;;;;;5.13;100.00;100331.63;4902511;29;20521;-72
2022/02/01 07:58:39;;;;;;;0.90;0.60;;;;;;;5.24;100.00;100329.38;4901529;29;20124;-71
2022/02/01 08:01:05;;;;;;;0.93;0.55;;;;;;;5.36;100.00;100340.84;4916942;29;20028;-72
2022/02/01 08:03:31;;;;;;;0.82;0.50;;;;;;;5.40;100.00;100328.41;4899327;29;20051;-71
2022/02/01 08:05:56;;;;;;;1.65;0.30;;;;;;;5.47;100.00;100325.22;4902916;29;20044;-70
2022/02/01 08:08:22;;;;;;;0.88;0.47;;;;;;;5.49;100.00;100313.13;4900446;29;20694;-71
2022/02/01 08:10:50;;;;;;;0.68;0.30;;;;;;;5.43;100.00;100310.97;4915966;29;20036;-71
2022/02/01 08:16:32;;;;;;;0.68;0.35;;;;;;;5.50;100.00;100285.31;4903070;29;20040;-71
2022/02/01 08:21:11;;;;;;;1.88;0.90;;;;;;;5.32;100.00;100270.53;4903510;29;20111;-68
2022/02/01 08:23:37;;;;;;;0.47;0.20;;;;;;;5.34;100.00;100271.00;4904648;29;20032;-71
2022/02/01 08:26:03;;;;;;;1.67;0.70;;;;;;;5.21;100.00;100266.75;4903497;29;20044;-71
2022/02/01 08:28:29;;;;;;;5.05;0.47;;;;;;;5.31;100.00;100261.00;4908731;29;20047;-71
2022/02/01 08:30:55;;;;;;;0.20;0.20;;;;;;;5.35;100.00;100255.78;4904178;29;20051;-72
2022/02/01 08:33:22;;;;;;;4.15;0.40;;;;;;;5.38;100.00;100261.22;4906349;29;20042;-68
2022/02/01 08:35:48;;;;;;;0.20;0.20;;;;;;;5.47;100.00;100255.81;4923134;29;20454;-71
2022/02/01 08:38:14;;;;;;;5.43;0.30;;;;;;;5.40;100.00;100245.66;4907612;29;20039;-71
2022/02/01 08:40:39;;;;;;;0.52;0.30;;;;;;;5.36;100.00;100239.41;4902067;29;20046;-70
2022/02/01 08:43:05;;;;;;;2.13;0.95;;;;;;;5.41;100.00;100233.88;4905831;29;20116;-70
2022/02/01 08:45:31;;;;;;;2.38;0.20;;;;;;;5.43;100.00;100221.00;4905817;29;20043;-71
2022/02/01 08:47:58;;;;;;;1.38;0.73;;;;;;;5.50;100.00;100225.78;4903459;29;20557;-71
2022/02/01 08:50:32;;;;;;;1.85;0.20;;;;;;;5.47;100.00;100207.75;4906220;29;20315;-71
2022/02/01 08:53:03;;;;;;;0.43;0.38;;;;;;;5.68;100.00;100205.78;4907919;29;20137;-70
2022/02/01 08:55:39;;;;;;;1.45;0.50;;;;;;;5.61;100.00;100202.09;4901152;29;20043;-68
2022/02/01 08:58:05;;;;;;;7.47;0.70;;;;;;;5.50;100.00;100194.53;4899858;29;20055;-69
2022/02/01 09:00:34;;;;;;;1.17;0.32;;;;;;;5.42;100.00;100194.59;4896929;29;20032;-68
2022/02/01 09:03:03;;;;;;;1.10;0.40;;;;;;;5.48;100.00;100183.38;4906019;29;20038;-70
2022/02/01 09:05:30;;;;;;;0.70;0.32;;;;;;;5.49;100.00;100174.28;4903835;29;20062;-71
2022/02/01 09:08:04;;;;;;;1.95;0.50;;;;;;;5.49;100.00;100171.63;4900778;29;20062;-69
2022/02/01 09:10:31;;;;;;;8.18;1.00;;;;;;;5.51;100.00;100149.91;4898857;29;20050;-72
2022/02/01 09:12:57;;;;;;;1.42;0.38;;;;;;;5.64;100.00;100145.34;4899931;29;20780;-69
2022/02/01 09:15:24;;;;;;;1.08;0.70;;;;;;;5.77;100.00;100141.56;4903696;29;20039;-71
2022/02/01 09:17:51;;;;;;;3.85;1.00;;;;;;;5.82;100.00;100136.00;4918549;29;20051;-72
2022/02/01 09:20:17;;;;;;;0.88;0.70;;;;;;;5.72;100.00;100136.44;4915927;29;20669;-70
2022/02/01 09:22:42;;;;;;;3.42;1.05;;;;;;;5.63;100.00;100128.56;4906064;29;20040;-69
2022/02/01 09:25:09;;;;;;;1.73;1.17;;;;;;;5.62;100.00;100123.53;4915928;29;20139;-70
2022/02/01 09:27:35;;;;;;;8.00;1.42;;;;;;;5.70;100.00;100117.31;4902908;29;20032;-70
2022/02/01 09:30:00;;;;;;;3.42;1.25;;;;;;;5.58;100.00;100104.72;4907194;29;20028;-70
2022/02/01 09:32:27;;;;;;;3.17;1.77;;;;;;;5.69;100.00;100091.72;4901218;29;20500;-72
2022/02/01 09:34:52;;;;;;;4.07;1.42;;;;;;;5.67;100.00;100091.28;4899589;29;20542;-71
2022/02/01 09:37:18;;;;;;;4.70;2.08;;;;;;;5.68;100.00;100074.91;4918875;29;20113;-70
2022/02/01 09:39:43;;;;;;;5.35;1.90;;;;;;;5.71;100.00;100068.88;4903759;29;20033;-71
2022/02/01 09:42:09;;;;;;;2.60;1.30;;;;;;;5.80;100.00;100058.88;4902625;29;20110;-73
2022/02/01 09:44:35;;;;;;;1.50;1.10;;;;;;;5.91;100.00;100057.31;4897883;29;20401;-69
2022/02/01 09:47:01;;;;;;;3.80;1.20;;;;;;;5.96;100.00;100051.72;4917026;29;20130;-71
2022/02/01 09:49:26;;;;;;;2.80;1.55;;;;;;;6.00;100.00;100046.50;4906159;29;20187;-68
2022/02/01 09:51:54;;;;;;;3.03;1.30;;;;;;;5.81;100.00;100047.06;4898197;29;20044;-71
2022/02/01 09:54:25;;;;;;;6.57;1.70;;;;;;;5.83;100.00;100028.81;4894162;29;20042;-70
2022/02/01 09:56:55;;;;;;;8.75;2.47;;;;;;;5.73;100.00;100017.81;4901493;29;20043;-69
2022/02/01 09:59:32;;;;;;;9.35;2.15;;;;;;;5.67;100.00;100011.16;4898335;29;20118;-71
2022/02/01 10:02:09;;;;;;;7.63;1.75;;;;;;;5.76;100.00;100001.09;4897404;29;20040;-70
2022/02/01 10:04:41;;;;;;;2.30;1.20;;;;;;;5.55;100.00;99995.94;4901617;29;20039;-70
2022/02/01 10:07:11;;;;;;;2.80;1.55;;;;;;;5.65;100.00;99984.78;4902333;29;20052;-70
2022/02/01 10:09:59;;;;;;;2.08;1.23;;;;;;;5.61;100.00;99980.47;4912808;29;20036;-71
2022/02/01 10:12:29;;;;;;;1.35;1.10;;;;;;;5.50;100.00;99964.13;4900454;29;20047;-69
2022/02/01 10:15:05;;;;;;;1.92;0.95;;;;;;;5.58;100.00;99959.75;4898343;29;20048;-72
2022/02/01 10:18:02;;;;;;;7.30;1.23;;;;;;;5.36;100.00;99948.47;4897572;29;20529;-72
2022/02/01 10:20:38;;;;;;;4.97;0.77;;;;;;;5.50;100.00;99942.75;4874990;29;20053;-70
2022/02/01 10:23:24;;;;;;;1.25;0.98;;;;;;;5.45;100.00;99940.34;4869253;29;20056;-71
2022/02/01 10:26:13;;;;;;;1.00;0.70;;;;;;;5.40;100.00;99927.25;4870932;29;20049;-70
2022/02/01 10:28:43;;;;;;;0.55;0.55;;;;;;;5.44;100.00;99917.41;4867012;29;20117;-71
2022/02/01 10:31:20;;;;;;;1.38;0.77;;;;;;;5.45;100.00;99909.09;4865531;29;20582;-70
2022/02/01 10:36:18;;;;;;;0.50;0.50;;;;;;;5.53;100.00;99886.78;4877639;29;20071;-70
2022/02/01 10:38:44;;;;;;;1.25;1.15;;;;;;;5.34;100.00;99873.28;4874687;29;20141;-69
2022/02/01 10:41:14;;;;;;;1.80;0.73;;;;;;;5.44;100.00;99861.34;4874469;29;20096;-70
2022/02/01 10:43:40;;;;;;;0.80;0.70;;;;;;;5.47;100.00;99856.13;4874481;29;20147;-70
2022/02/01 10:46:12;;;;;;;0.70;0.70;;;;;;;5.30;100.00;99842.28;4875907;29;20060;-70
2022/02/01 10:48:44;;;;;;;0.43;0.43;;;;;;;5.24;100.00;99823.09;4876492;29;20056;-70
2022/02/01 10:51:12;;;;;;;1.10;0.55;;;;;;;5.41;100.00;99814.00;4878055;29;20127;-70
2022/02/01 10:53:38;;;;;;;1.17;0.93;;;;;;;5.55;100.00;99802.91;4856676;29;20482;-71
2022/02/01 10:56:06;;;;;;;3.80;1.25;;;;;;;5.32;100.00;99790.09;4876263;29;20041;-70
2022/02/01 10:58:32;;;;;;;3.53;1.15;;;;;;;5.43;100.00;99774.38;4899284;29;20075;-70
2022/02/01 11:00:58;;;;;;;1.33;0.82;;;;;;;5.28;100.00;99772.47;4900728;29;20040;-71
2022/02/01 11:03:24;;;;;;;1.65;0.82;;;;;;;5.42;100.00;99752.25;4915047;29;20403;-70
2022/02/01 11:05:52;;;;;;;0.50;0.50;;;;;;;5.53;100.00;99749.09;4903043;29;20032;-70
2022/02/01 11:08:26;;;;;;;0.85;0.70;;;;;;;5.48;100.00;99734.09;4899458;29;20178;-70
2022/02/01 11:10:54;;;;;;;0.50;0.50;;;;;;;5.47;100.00;99722.66;4896309;29;20050;-71
2022/02/01 11:13:21;;;;;;;1.42;0.47;;;;;;;5.32;100.00;99706.63;4896978;29;20114;-71
2022/02/01 11:16:01;;;;;;;1.38;0.63;;;;;;;5.22;100.00;99689.22;4913246;29;20036;-71
2022/02/01 11:18:28;;;;;;;2.42;1.00;;;;;;;5.26;100.00;99686.63;4904638;29;20038;-71
2022/02/01 11:21:14;;;;;;;1.17;0.60;;;;;;;5.35;100.00;99673.88;4912907;29;20091;-71
2022/02/01 11:26:28;;;;;;;0.98;0.73;;;;;;;5.43;100.00;99643.59;4898652;29;20044;-70
2022/02/01 11:29:32;;;;;;;2.28;0.73;;;;;;;5.42;100.00;99634.81;4896432;29;20040;-70
2022/02/01 11:31:59;;;;;;;0.50;0.50;;;;;;;5.59;100.00;99616.88;4898222;29;20486;-71
2022/02/01 11:34:34;;;;;;;0.70;0.70;;;;;;;5.51;100.00;99610.59;4901968;29;20806;-70
2022/02/01 11:37:02;;;;;;;0.50;0.50;;;;;;;5.40;100.00;99605.00;4899685;29;20039;-71
2022/02/01 11:39:29;;;;;;;0.65;0.65;;;;;;;5.43;100.00;99588.31;4898986;29;20576;-70
2022/02/01 11:41:56;;;;;;;0.73;0.55;;;;;;;5.42;100.00;99568.06;4902824;29;20040;-71
2022/02/01 11:44:28;;;;;;;1.80;0.57;;;;;;;5.37;100.00;99580.91;4900793;29;20043;-70
2022/02/01 11:47:12;;;;;;;0.63;0.55;;;;;;;5.62;100.00;99568.13;4897617;29;20047;-71
2022/02/01 11:49:53;;;;;;;0.28;0.28;;;;;;;5.49;100.00;99552.22;4896701;29;21324;-70
2022/02/01 11:52:20;;;;;;;1.38;0.60;;;;;;;5.56;100.00;99548.94;4897123;29;20083;-70
2022/02/01 11:54:47;;;;;;;0.45;0.25;;;;;;;5.70;100.00;99565.25;4897528;29;21057;-70
2022/02/01 11:57:15;;;;;;;1.02;0.60;;;;;;;5.73;100.00;99543.19;4897364;29;20619;-70
2022/02/01 11:59:57;;;;;;;2.65;0.60;;;;;;;5.64;100.00;99539.94;4901796;29;20032;-71
2022/02/01 12:02:27;;;;;;;0.45;0.35;;;;;;;5.56;100.00;99522.22;4896405;29;20117;-70
2022/02/01 12:05:04;;;;;;;3.40;0.43;;;;;;;5.73;100.00;99521.06;4900117;29;20659;-70
2022/02/01 12:07:45;;;;;;;0.98;0.55;;;;;;;5.53;100.00;99501.56;4911013;29;20087;-71
2022/02/01 12:10:17;;;;;;;0.68;0.60;;;;;;;5.61;100.00;99491.81;4898191;29;20064;-71
2022/02/01 12:12:44;;;;;;;0.45;0.45;;;;;;;5.74;100.00;99491.34;4913966;29;20048;-71
2022/02/01 12:15:09;;;;;;;0.68;0.32;;;;;;;5.98;100.00;99479.63;4900209;29;20131;-71
2022/02/01 12:17:43;;;;;;;0.55;0.50;;;;;;;6.03;100.00;99471.31;4898427;29;20713;-71
2022/02/01 12:20:14;;;;;;;1.25;0.70;;;;;;;6.26;100.00;99472.13;4902442;29;20046;-71
2022/02/01 12:23:01;;;;;;;0.60;0.60;;;;;;;6.19;100.00;99453.31;4898691;29;20405;-72
2022/02/01 12:25:29;;;;;;;0.32;0.32;;;;;;;6.24;100.00;99448.44;4903352;29;20816;-72
2022/02/01 12:27:54;;;;;;;0.55;0.52;;;;;;;6.19;100.00;99447.97;4911857;29;20046;-72
2022/02/01 12:30:20;;;;;;;0.90;0.43;;;;;;;6.48;100.00;99452.66;4897578;29;20041;-72
2022/02/01 12:32:50;;;;;;;0.98;0.80;;;;;;;6.43;100.00;99438.84;4900039;29;20047;-72
2022/02/01 12:35:16;;;;;;;0.68;0.50;;;;;;;6.39;100.00;99444.09;4894021;29;20073;-71
2022/02/01 12:37:41;;;;;;;0.90;0.63;;;;;;;6.45;100.00;99423.94;4903143;29;20032;-72
2022/02/01 12:40:12;;;;;;;1.13;0.85;;;;;;;6.59;100.00;99426.09;4899151;29;20046;-72
2022/02/01 12:42:49;;;;;;;5.28;0.77;;;;;;;6.62;100.00;99418.13;4901867;29;20047;-72
2022/02/01 12:48:01;;;;;;;0.50;0.50;;;;;;;6.57;100.00;99413.09;4898096;29;20054;-72
2022/02/01 12:50:28;;;;;;;0.30;0.30;;;;;;;6.77;100.00;99392.38;4895830;29;20559;-72
2022/02/01 12:53:02;;;;;;;1.52;0.70;;;;;;;6.68;100.00;99384.59;4897995;29;20796;-72
2022/02/01 12:55:27;;;;;;;0.65;0.60;;;;;;;6.86;100.00;99390.19;4899285;29;20118;-71
2022/02/01 12:57:54;;;;;;;1.27;0.88;;;;;;;6.73;100.00;99389.66;4889774;29;20111;-72